sensor_id;sensor_type;location;lat;lon;timestamp;temperature;humidity
27747;DHT22;15138;51.012;4.692;2022-12-13T00:01:28;-1.00;99.90
27747;DHT22;15138;51.012;4.692;2022-12-13T00:03:59;-1.10;99.90
27747;DHT22;15138;51.012;4.692;2022-12-13T00:06:27;-1.10;99.90
27747;DHT22;15138;51.012;4.692;2022-12-13T00:08:56;-1.20;99.90
27747;DHT22;15138;51.012;4.692;2022-12-13T00:11:24;-1.30;99.90
27747;DHT22;15138;51.012;4.692;2022-12-13T00:13:53;-1.20;99.90
27747;DHT22;15138;51.012;4.692;2022-12-13T00:16:21;-1.20;99.90
27747;DHT22;15138;51.012;4.692;2022-12-13T00:18:52;-1.20;99.90
27747;DHT22;15138;51.012;4.692;2022-12-13T00:21:22;-1.20;99.90
27747;DHT22;15138;51.012;4.692;2022-12-13T00:23:50;-1.20;99.90
27747;DHT22;15138;51.012;4.692;2022-12-13T00:26:19;-1.00;99.90
27747;DHT22;15138;51.012;4.692;2022-12-13T00:28:47;-1.20;99.90
27747;DHT22;15138;51.012;4.692;2022-12-13T00:31:16;-1.20;99.90
27747;DHT22;15138;51.012;4.692;2022-12-13T00:34:06;-1.20;99.90
27747;DHT22;15138;51.012;4.692;2022-12-13T00:36:34;-1.20;99.90
27747;DHT22;15138;51.012;4.692;2022-12-13T00:39:02;-1.20;99.90
27747;DHT22;15138;51.012;4.692;2022-12-13T00:41:30;-1.20;99.90
27747;DHT22;15138;51.012;4.692;2022-12-13T00:43:59;-1.20;99.90
27747;DHT22;15138;51.012;4.692;2022-12-13T00:46:27;-1.20;99.90
27747;DHT22;15138;51.012;4.692;2022-12-13T00:48:56;-1.20;99.90
27747;DHT22;15138;51.012;4.692;2022-12-13T00:51:26;-1.20;99.90
27747;DHT22;15138;51.012;4.692;2022-12-13T00:53:54;-1.20;99.90
27747;DHT22;15138;51.012;4.692;2022-12-13T00:56:23;-1.20;99.90
27747;DHT22;15138;51.012;4.692;2022-12-13T00:58:51;-0.80;99.90
27747;DHT22;15138;51.012;4.692;2022-12-13T01:01:20;-1.20;99.90
27747;DHT22;15138;51.012;4.692;2022-12-13T01:03:50;-1.20;99.90
27747;DHT22;15138;51.012;4.692;2022-12-13T01:06:19;-1.20;99.90
27747;DHT22;15138;51.012;4.692;2022-12-13T01:08:49;-1.20;99.90
27747;DHT22;15138;51.012;4.692;2022-12-13T01:11:17;-1.10;99.90
27747;DHT22;15138;51.012;4.692;2022-12-13T01:13:45;-1.20;99.90
27747;DHT22;15138;51.012;4.692;2022-12-13T01:16:13;-1.40;99.90
27747;DHT22;15138;51.012;4.692;2022-12-13T01:18:41;-1.20;99.90
27747;DHT22;15138;51.012;4.692;2022-12-13T01:21:09;-1.20;99.90
27747;DHT22;15138;51.012;4.692;2022-12-13T01:23:38;-1.20;99.90
27747;DHT22;15138;51.012;4.692;2022-12-13T01:26:08;-1.30;99.90
27747;DHT22;15138;51.012;4.692;2022-12-13T01:28:36;-1.30;99.90
27747;DHT22;15138;51.012;4.692;2022-12-13T01:31:04;-1.30;99.90
27747;DHT22;15138;51.012;4.692;2022-12-13T01:33:34;-1.30;99.90
27747;DHT22;15138;51.012;4.692;2022-12-13T01:36:02;-1.30;99.90
27747;DHT22;15138;51.012;4.692;2022-12-13T01:38:31;-1.30;99.90
27747;DHT22;15138;51.012;4.692;2022-12-13T01:41:03;-1.40;99.90
27747;DHT22;15138;51.012;4.692;2022-12-13T01:43:52;-1.40;99.90
27747;DHT22;15138;51.012;4.692;2022-12-13T01:46:21;-1.40;99.90
27747;DHT22;15138;51.012;4.692;2022-12-13T01:48:50;-1.40;99.90
27747;DHT22;15138;51.012;4.692;2022-12-13T01:51:20;-1.40;99.90
27747;DHT22;15138;51.012;4.692;2022-12-13T01:53:49;-1.40;99.90
27747;DHT22;15138;51.012;4.692;2022-12-13T01:56:19;-1.50;99.90
27747;DHT22;15138;51.012;4.692;2022-12-13T01:58:48;-1.40;99.90
27747;DHT22;15138;51.012;4.692;2022-12-13T02:01:18;-1.10;99.90
27747;DHT22;15138;51.012;4.692;2022-12-13T02:03:46;-1.50;99.90
27747;DHT22;15138;51.012;4.692;2022-12-13T02:06:14;-1.50;99.90
27747;DHT22;15138;51.012;4.692;2022-12-13T02:08:43;-1.50;99.90
27747;DHT22;15138;51.012;4.692;2022-12-13T02:11:12;-1.50;99.90
27747;DHT22;15138;51.012;4.692;2022-12-13T02:13:40;-1.50;99.90
27747;DHT22;15138;51.012;4.692;2022-12-13T02:16:10;-1.30;99.90
27747;DHT22;15138;51.012;4.692;2022-12-13T02:18:54;-1.50;99.90
27747;DHT22;15138;51.012;4.692;2022-12-13T02:21:28;-1.50;99.90
27747;DHT22;15138;51.012;4.692;2022-12-13T02:26:43;-1.50;99.90
27747;DHT22;15138;51.012;4.692;2022-12-13T02:29:18;-1.50;99.90
27747;DHT22;15138;51.012;4.692;2022-12-13T02:31:59;-1.50;99.90
27747;DHT22;15138;51.012;4.692;2022-12-13T02:34:30;-1.50;99.90
27747;DHT22;15138;51.012;4.692;2022-12-13T02:37:02;-1.50;99.90
27747;DHT22;15138;51.012;4.692;2022-12-13T02:39:46;-1.60;99.90
27747;DHT22;15138;51.012;4.692;2022-12-13T02:42:16;-1.60;99.90
27747;DHT22;15138;51.012;4.692;2022-12-13T02:44:49;-1.60;1.00
27747;DHT22;15138;51.012;4.692;2022-12-13T02:47:20;-1.70;1.00
27747;DHT22;15138;51.012;4.692;2022-12-13T02:49:50;-1.60;1.00
27747;DHT22;15138;51.012;4.692;2022-12-13T02:52:20;-1.20;99.90
27747;DHT22;15138;51.012;4.692;2022-12-13T02:54:49;-1.60;99.90
27747;DHT22;15138;51.012;4.692;2022-12-13T02:57:30;-1.20;99.90
27747;DHT22;15138;51.012;4.692;2022-12-13T02:59:59;-1.50;99.90
27747;DHT22;15138;51.012;4.692;2022-12-13T03:02:31;-1.60;99.90
27747;DHT22;15138;51.012;4.692;2022-12-13T03:05:03;-1.60;99.90
27747;DHT22;15138;51.012;4.692;2022-12-13T03:07:51;-1.60;99.90
27747;DHT22;15138;51.012;4.692;2022-12-13T03:10:24;-1.60;1.00
27747;DHT22;15138;51.012;4.692;2022-12-13T03:12:55;-1.60;1.00
27747;DHT22;15138;51.012;4.692;2022-12-13T03:15:44;-1.50;1.00
27747;DHT22;15138;51.012;4.692;2022-12-13T03:18:16;-1.60;99.90
27747;DHT22;15138;51.012;4.692;2022-12-13T03:20:45;-1.60;99.90
27747;DHT22;15138;51.012;4.692;2022-12-13T03:23:14;-1.30;99.90
27747;DHT22;15138;51.012;4.692;2022-12-13T03:25:42;-1.60;99.90
27747;DHT22;15138;51.012;4.692;2022-12-13T03:28:10;-1.60;1.00
27747;DHT22;15138;51.012;4.692;2022-12-13T03:30:39;-1.60;1.00
27747;DHT22;15138;51.012;4.692;2022-12-13T03:33:06;-1.70;99.90
27747;DHT22;15138;51.012;4.692;2022-12-13T03:35:36;-1.60;1.00
27747;DHT22;15138;51.012;4.692;2022-12-13T03:38:11;-1.60;99.90
27747;DHT22;15138;51.012;4.692;2022-12-13T03:40:49;-1.60;99.90
27747;DHT22;15138;51.012;4.692;2022-12-13T03:43:17;-1.60;99.90
27747;DHT22;15138;51.012;4.692;2022-12-13T03:45:48;-1.50;99.90
27747;DHT22;15138;51.012;4.692;2022-12-13T03:48:16;-1.70;99.90
27747;DHT22;15138;51.012;4.692;2022-12-13T03:50:50;-1.60;1.00
27747;DHT22;15138;51.012;4.692;2022-12-13T03:53:18;-1.60;1.00
27747;DHT22;15138;51.012;4.692;2022-12-13T03:55:58;-1.70;99.90
27747;DHT22;15138;51.012;4.692;2022-12-13T03:58:27;-1.70;99.90
27747;DHT22;15138;51.012;4.692;2022-12-13T04:01:03;-1.60;99.90
27747;DHT22;15138;51.012;4.692;2022-12-13T04:03:31;-1.70;99.90
27747;DHT22;15138;51.012;4.692;2022-12-13T04:06:01;-1.70;99.90
27747;DHT22;15138;51.012;4.692;2022-12-13T04:08:28;-1.70;1.00
27747;DHT22;15138;51.012;4.692;2022-12-13T04:10:57;-1.70;1.00
27747;DHT22;15138;51.012;4.692;2022-12-13T04:13:24;-1.70;99.90
27747;DHT22;15138;51.012;4.692;2022-12-13T04:16:01;-1.70;99.90
27747;DHT22;15138;51.012;4.692;2022-12-13T04:18:29;-1.70;99.90
27747;DHT22;15138;51.012;4.692;2022-12-13T04:20:57;-1.70;1.00
27747;DHT22;15138;51.012;4.692;2022-12-13T04:23:26;-1.70;1.00
27747;DHT22;15138;51.012;4.692;2022-12-13T04:25:54;-1.70;1.00
27747;DHT22;15138;51.012;4.692;2022-12-13T04:28:21;-1.80;1.00
27747;DHT22;15138;51.012;4.692;2022-12-13T04:30:49;-1.80;1.00
27747;DHT22;15138;51.012;4.692;2022-12-13T04:33:19;-1.80;1.00
27747;DHT22;15138;51.012;4.692;2022-12-13T04:35:48;-1.80;1.00
27747;DHT22;15138;51.012;4.692;2022-12-13T04:38:16;-1.70;1.00
27747;DHT22;15138;51.012;4.692;2022-12-13T04:40:45;-1.70;1.00
27747;DHT22;15138;51.012;4.692;2022-12-13T04:43:13;-1.70;1.00
27747;DHT22;15138;51.012;4.692;2022-12-13T04:45:41;-1.70;1.00
27747;DHT22;15138;51.012;4.692;2022-12-13T04:48:09;-1.70;1.00
27747;DHT22;15138;51.012;4.692;2022-12-13T04:50:37;-1.70;1.00
27747;DHT22;15138;51.012;4.692;2022-12-13T04:53:05;-1.70;1.00
27747;DHT22;15138;51.012;4.692;2022-12-13T04:55:32;-1.40;1.00
27747;DHT22;15138;51.012;4.692;2022-12-13T04:58:02;-1.70;1.00
27747;DHT22;15138;51.012;4.692;2022-12-13T05:00:29;-1.70;1.00
27747;DHT22;15138;51.012;4.692;2022-12-13T05:02:57;-1.70;1.00
27747;DHT22;15138;51.012;4.692;2022-12-13T05:05:25;-1.70;1.00
27747;DHT22;15138;51.012;4.692;2022-12-13T05:07:53;-1.70;1.00
27747;DHT22;15138;51.012;4.692;2022-12-13T05:10:21;-1.70;1.00
27747;DHT22;15138;51.012;4.692;2022-12-13T05:13:05;-1.80;1.00
27747;DHT22;15138;51.012;4.692;2022-12-13T05:15:33;-1.70;1.00
27747;DHT22;15138;51.012;4.692;2022-12-13T05:18:01;-1.70;1.00
27747;DHT22;15138;51.012;4.692;2022-12-13T05:20:36;-1.60;1.00
27747;DHT22;15138;51.012;4.692;2022-12-13T05:23:04;-1.90;1.00
27747;DHT22;15138;51.012;4.692;2022-12-13T05:25:32;-1.80;1.00
27747;DHT22;15138;51.012;4.692;2022-12-13T05:28:04;-1.80;1.00
27747;DHT22;15138;51.012;4.692;2022-12-13T05:30:52;-1.70;1.00
27747;DHT22;15138;51.012;4.692;2022-12-13T05:33:20;-2.00;1.00
27747;DHT22;15138;51.012;4.692;2022-12-13T05:35:48;-1.70;1.00
27747;DHT22;15138;51.012;4.692;2022-12-13T05:38:21;-1.60;1.00
27747;DHT22;15138;51.012;4.692;2022-12-13T05:40:49;-1.80;1.00
27747;DHT22;15138;51.012;4.692;2022-12-13T05:43:19;-1.80;1.00
27747;DHT22;15138;51.012;4.692;2022-12-13T05:45:47;-1.80;1.00
27747;DHT22;15138;51.012;4.692;2022-12-13T05:48:15;-1.90;1.00
27747;DHT22;15138;51.012;4.692;2022-12-13T05:50:50;-1.80;1.00
27747;DHT22;15138;51.012;4.692;2022-12-13T05:53:37;-1.80;1.00
27747;DHT22;15138;51.012;4.692;2022-12-13T05:56:05;-1.80;1.00
27747;DHT22;15138;51.012;4.692;2022-12-13T05:58:35;-1.80;1.00
27747;DHT22;15138;51.012;4.692;2022-12-13T06:01:03;-1.80;1.00
27747;DHT22;15138;51.012;4.692;2022-12-13T06:03:32;-1.80;1.00
27747;DHT22;15138;51.012;4.692;2022-12-13T06:06:00;-1.70;1.00
27747;DHT22;15138;51.012;4.692;2022-12-13T06:08:28;-1.80;1.00
27747;DHT22;15138;51.012;4.692;2022-12-13T06:10:57;-1.80;1.00
27747;DHT22;15138;51.012;4.692;2022-12-13T06:13:40;-1.80;1.00
27747;DHT22;15138;51.012;4.692;2022-12-13T06:16:10;-1.80;1.00
27747;DHT22;15138;51.012;4.692;2022-12-13T06:18:50;-1.80;1.00
27747;DHT22;15138;51.012;4.692;2022-12-13T06:21:26;-1.80;1.00
27747;DHT22;15138;51.012;4.692;2022-12-13T06:24:11;-1.80;1.00
27747;DHT22;15138;51.012;4.692;2022-12-13T06:26:39;-1.50;1.00
27747;DHT22;15138;51.012;4.692;2022-12-13T06:29:08;-1.80;1.00
27747;DHT22;15138;51.012;4.692;2022-12-13T06:31:36;-1.80;1.00
27747;DHT22;15138;51.012;4.692;2022-12-13T06:34:04;-1.80;1.00
27747;DHT22;15138;51.012;4.692;2022-12-13T06:36:40;-1.80;1.00
27747;DHT22;15138;51.012;4.692;2022-12-13T06:39:08;-1.90;1.00
27747;DHT22;15138;51.012;4.692;2022-12-13T06:41:36;-1.90;1.00
27747;DHT22;15138;51.012;4.692;2022-12-13T06:44:04;-1.90;1.00
27747;DHT22;15138;51.012;4.692;2022-12-13T06:46:33;-2.10;1.00
27747;DHT22;15138;51.012;4.692;2022-12-13T06:49:06;-2.00;1.00
27747;DHT22;15138;51.012;4.692;2022-12-13T06:51:34;-2.00;1.00
27747;DHT22;15138;51.012;4.692;2022-12-13T06:54:02;-1.70;1.00
27747;DHT22;15138;51.012;4.692;2022-12-13T06:56:30;-2.00;1.00
27747;DHT22;15138;51.012;4.692;2022-12-13T06:58:58;-2.00;99.90
27747;DHT22;15138;51.012;4.692;2022-12-13T07:01:27;-2.00;99.90
27747;DHT22;15138;51.012;4.692;2022-12-13T07:04:05;-2.00;99.90
27747;DHT22;15138;51.012;4.692;2022-12-13T07:06:54;-2.00;1.00
27747;DHT22;15138;51.012;4.692;2022-12-13T07:09:27;-1.90;1.00
27747;DHT22;15138;51.012;4.692;2022-12-13T07:11:58;-2.00;99.90
27747;DHT22;15138;51.012;4.692;2022-12-13T07:14:26;-2.00;99.90
27747;DHT22;15138;51.012;4.692;2022-12-13T07:16:54;-2.10;99.90
27747;DHT22;15138;51.012;4.692;2022-12-13T07:19:30;-1.80;99.90
27747;DHT22;15138;51.012;4.692;2022-12-13T07:22:07;-2.00;99.90
27747;DHT22;15138;51.012;4.692;2022-12-13T07:24:35;-2.00;1.00
27747;DHT22;15138;51.012;4.692;2022-12-13T07:27:03;-2.00;1.00
27747;DHT22;15138;51.012;4.692;2022-12-13T07:29:31;-2.00;99.90
27747;DHT22;15138;51.012;4.692;2022-12-13T07:31:59;-2.00;1.00
27747;DHT22;15138;51.012;4.692;2022-12-13T07:34:27;-2.00;1.00
27747;DHT22;15138;51.012;4.692;2022-12-13T07:36:57;-2.00;99.90
27747;DHT22;15138;51.012;4.692;2022-12-13T07:39:25;-2.00;99.90
27747;DHT22;15138;51.012;4.692;2022-12-13T07:41:53;-1.70;99.90
27747;DHT22;15138;51.012;4.692;2022-12-13T07:44:21;-2.10;1.00
27747;DHT22;15138;51.012;4.692;2022-12-13T07:46:50;-2.10;1.00
27747;DHT22;15138;51.012;4.692;2022-12-13T07:49:18;-2.00;1.00
27747;DHT22;15138;51.012;4.692;2022-12-13T07:51:46;-2.00;1.00
27747;DHT22;15138;51.012;4.692;2022-12-13T07:54:15;-2.00;1.00
27747;DHT22;15138;51.012;4.692;2022-12-13T07:56:43;-2.00;1.00
27747;DHT22;15138;51.012;4.692;2022-12-13T07:59:11;-1.90;1.00
27747;DHT22;15138;51.012;4.692;2022-12-13T08:01:39;-1.90;1.00
27747;DHT22;15138;51.012;4.692;2022-12-13T08:04:08;-1.90;1.00
27747;DHT22;15138;51.012;4.692;2022-12-13T08:06:36;-1.80;99.90
27747;DHT22;15138;51.012;4.692;2022-12-13T08:09:04;-1.70;1.00
27747;DHT22;15138;51.012;4.692;2022-12-13T08:11:33;-1.60;99.90
27747;DHT22;15138;51.012;4.692;2022-12-13T08:14:01;-1.40;1.00
27747;DHT22;15138;51.012;4.692;2022-12-13T08:16:29;-1.20;99.90
27747;DHT22;15138;51.012;4.692;2022-12-13T08:18:58;-0.90;99.90
27747;DHT22;15138;51.012;4.692;2022-12-13T08:21:32;-0.60;99.90
27747;DHT22;15138;51.012;4.692;2022-12-13T08:24:20;-0.30;99.90
27747;DHT22;15138;51.012;4.692;2022-12-13T08:26:49;-0.10;99.90
27747;DHT22;15138;51.012;4.692;2022-12-13T08:29:17;0.10;99.90
27747;DHT22;15138;51.012;4.692;2022-12-13T08:31:59;0.40;1.00
27747;DHT22;15138;51.012;4.692;2022-12-13T08:34:27;0.40;1.00
27747;DHT22;15138;51.012;4.692;2022-12-13T08:36:57;0.70;1.00
27747;DHT22;15138;51.012;4.692;2022-12-13T08:39:29;1.30;1.00
27747;DHT22;15138;51.012;4.692;2022-12-13T08:42:02;1.50;99.90
27747;DHT22;15138;51.012;4.692;2022-12-13T08:44:44;1.80;1.00
27747;DHT22;15138;51.012;4.692;2022-12-13T08:47:12;2.20;1.00
27747;DHT22;15138;51.012;4.692;2022-12-13T08:49:49;2.50;99.90
27747;DHT22;15138;51.012;4.692;2022-12-13T08:52:17;2.70;1.00
27747;DHT22;15138;51.012;4.692;2022-12-13T08:54:45;2.90;68.00
27747;DHT22;15138;51.012;4.692;2022-12-13T08:57:14;3.10;99.90
27747;DHT22;15138;51.012;4.692;2022-12-13T08:59:42;3.30;1.00
27747;DHT22;15138;51.012;4.692;2022-12-13T09:02:10;3.40;1.00
27747;DHT22;15138;51.012;4.692;2022-12-13T09:04:38;3.60;99.90
27747;DHT22;15138;51.012;4.692;2022-12-13T09:07:06;3.90;1.00
27747;DHT22;15138;51.012;4.692;2022-12-13T09:09:34;4.40;1.00
27747;DHT22;15138;51.012;4.692;2022-12-13T09:12:03;4.90;99.90
27747;DHT22;15138;51.012;4.692;2022-12-13T09:14:38;5.50;99.90
27747;DHT22;15138;51.012;4.692;2022-12-13T09:17:12;6.10;99.90
27747;DHT22;15138;51.012;4.692;2022-12-13T09:19:50;6.50;99.90
27747;DHT22;15138;51.012;4.692;2022-12-13T09:22:24;6.60;1.00
27747;DHT22;15138;51.012;4.692;2022-12-13T09:24:59;7.00;1.00
27747;DHT22;15138;51.012;4.692;2022-12-13T09:30:08;6.50;99.90
27747;DHT22;15138;51.012;4.692;2022-12-13T09:35:07;7.00;99.90
27747;DHT22;15138;51.012;4.692;2022-12-13T09:37:35;7.60;1.00
27747;DHT22;15138;51.012;4.692;2022-12-13T09:40:11;7.90;1.00
27747;DHT22;15138;51.012;4.692;2022-12-13T09:42:52;8.30;1.00
27747;DHT22;15138;51.012;4.692;2022-12-13T09:45:40;8.80;1.00
27747;DHT22;15138;51.012;4.692;2022-12-13T09:48:11;8.70;1.00
27747;DHT22;15138;51.012;4.692;2022-12-13T09:50:48;8.60;1.00
27747;DHT22;15138;51.012;4.692;2022-12-13T09:53:24;8.20;99.90
27747;DHT22;15138;51.012;4.692;2022-12-13T09:55:59;8.00;99.90
27747;DHT22;15138;51.012;4.692;2022-12-13T09:58:36;8.20;99.90
27747;DHT22;15138;51.012;4.692;2022-12-13T10:01:05;8.20;99.90
27747;DHT22;15138;51.012;4.692;2022-12-13T10:03:33;8.40;99.90
27747;DHT22;15138;51.012;4.692;2022-12-13T10:06:07;8.40;1.00
27747;DHT22;15138;51.012;4.692;2022-12-13T10:08:39;7.50;1.00
27747;DHT22;15138;51.012;4.692;2022-12-13T10:11:10;8.30;1.00
27747;DHT22;15138;51.012;4.692;2022-12-13T10:13:38;8.40;1.00
27747;DHT22;15138;51.012;4.692;2022-12-13T10:16:10;8.50;1.00
27747;DHT22;15138;51.012;4.692;2022-12-13T10:18:49;8.30;1.00
27747;DHT22;15138;51.012;4.692;2022-12-13T10:21:18;8.90;99.90
27747;DHT22;15138;51.012;4.692;2022-12-13T10:23:48;8.60;1.00
27747;DHT22;15138;51.012;4.692;2022-12-13T10:26:36;9.90;99.90
27747;DHT22;15138;51.012;4.692;2022-12-13T10:29:05;10.40;99.90
27747;DHT22;15138;51.012;4.692;2022-12-13T10:31:39;10.90;99.90
27747;DHT22;15138;51.012;4.692;2022-12-13T10:34:13;11.20;99.90
27747;DHT22;15138;51.012;4.692;2022-12-13T10:36:43;11.60;1.00
27747;DHT22;15138;51.012;4.692;2022-12-13T10:39:13;11.90;27.10
27747;DHT22;15138;51.012;4.692;2022-12-13T10:41:42;12.40;99.90
27747;DHT22;15138;51.012;4.692;2022-12-13T10:44:17;12.80;99.90
27747;DHT22;15138;51.012;4.692;2022-12-13T10:46:50;13.30;35.10
27747;DHT22;15138;51.012;4.692;2022-12-13T10:49:20;12.70;99.90
27747;DHT22;15138;51.012;4.692;2022-12-13T10:51:49;12.80;99.90
27747;DHT22;15138;51.012;4.692;2022-12-13T10:54:22;12.90;99.90
27747;DHT22;15138;51.012;4.692;2022-12-13T10:56:52;13.50;99.90
27747;DHT22;15138;51.012;4.692;2022-12-13T10:59:26;14.00;99.90
27747;DHT22;15138;51.012;4.692;2022-12-13T11:01:59;13.60;99.90
27747;DHT22;15138;51.012;4.692;2022-12-13T11:04:27;14.30;99.90
27747;DHT22;15138;51.012;4.692;2022-12-13T11:06:57;14.60;99.90
27747;DHT22;15138;51.012;4.692;2022-12-13T11:09:29;15.10;99.90
27747;DHT22;15138;51.012;4.692;2022-12-13T11:12:10;15.30;99.90
27747;DHT22;15138;51.012;4.692;2022-12-13T11:14:39;15.50;99.90
27747;DHT22;15138;51.012;4.692;2022-12-13T11:17:18;15.60;99.90
27747;DHT22;15138;51.012;4.692;2022-12-13T11:19:48;15.70;99.90
27747;DHT22;15138;51.012;4.692;2022-12-13T11:22:20;15.80;99.90
27747;DHT22;15138;51.012;4.692;2022-12-13T11:24:49;16.00;95.50
27747;DHT22;15138;51.012;4.692;2022-12-13T11:27:27;15.90;79.30
27747;DHT22;15138;51.012;4.692;2022-12-13T11:30:08;16.30;84.70
27747;DHT22;15138;51.012;4.692;2022-12-13T11:32:47;16.40;62.20
27747;DHT22;15138;51.012;4.692;2022-12-13T11:35:24;16.30;54.20
27747;DHT22;15138;51.012;4.692;2022-12-13T11:37:57;16.30;45.10
27747;DHT22;15138;51.012;4.692;2022-12-13T11:40:30;16.30;33.00
27747;DHT22;15138;51.012;4.692;2022-12-13T11:43:00;16.20;29.60
27747;DHT22;15138;51.012;4.692;2022-12-13T11:45:30;15.80;27.80
27747;DHT22;15138;51.012;4.692;2022-12-13T11:48:04;15.80;16.80
27747;DHT22;15138;51.012;4.692;2022-12-13T11:50:34;15.70;15.50
27747;DHT22;15138;51.012;4.692;2022-12-13T11:53:17;15.50;13.40
27747;DHT22;15138;51.012;4.692;2022-12-13T11:55:48;15.20;10.00
27747;DHT22;15138;51.012;4.692;2022-12-13T11:58:19;15.00;8.90
27747;DHT22;15138;51.012;4.692;2022-12-13T12:01:08;14.50;4.70
27747;DHT22;15138;51.012;4.692;2022-12-13T12:03:39;14.20;3.80
27747;DHT22;15138;51.012;4.692;2022-12-13T12:06:11;13.90;1.00
27747;DHT22;15138;51.012;4.692;2022-12-13T12:08:41;13.50;1.00
27747;DHT22;15138;51.012;4.692;2022-12-13T12:11:11;13.20;2.40
27747;DHT22;15138;51.012;4.692;2022-12-13T12:13:44;12.90;1.00
27747;DHT22;15138;51.012;4.692;2022-12-13T12:16:24;12.70;1.00
27747;DHT22;15138;51.012;4.692;2022-12-13T12:18:55;12.50;3.50
27747;DHT22;15138;51.012;4.692;2022-12-13T12:21:34;12.20;1.00
27747;DHT22;15138;51.012;4.692;2022-12-13T12:24:23;12.00;1.00
27747;DHT22;15138;51.012;4.692;2022-12-13T12:26:57;11.70;4.40
27747;DHT22;15138;51.012;4.692;2022-12-13T12:29:38;11.50;4.70
27747;DHT22;15138;51.012;4.692;2022-12-13T12:32:14;11.30;7.70
27747;DHT22;15138;51.012;4.692;2022-12-13T12:34:47;10.90;8.10
27747;DHT22;15138;51.012;4.692;2022-12-13T12:37:18;10.60;9.70
27747;DHT22;15138;51.012;4.692;2022-12-13T12:39:54;10.50;9.20
27747;DHT22;15138;51.012;4.692;2022-12-13T12:42:30;10.00;11.40
27747;DHT22;15138;51.012;4.692;2022-12-13T12:45:27;9.90;12.90
27747;DHT22;15138;51.012;4.692;2022-12-13T12:48:21;9.60;14.00
27747;DHT22;15138;51.012;4.692;2022-12-13T12:51:15;9.50;16.30
27747;DHT22;15138;51.012;4.692;2022-12-13T12:53:47;9.30;18.60
27747;DHT22;15138;51.012;4.692;2022-12-13T12:56:24;9.10;20.40
27747;DHT22;15138;51.012;4.692;2022-12-13T12:58:56;9.00;23.70
27747;DHT22;15138;51.012;4.692;2022-12-13T13:01:30;8.80;25.10
27747;DHT22;15138;51.012;4.692;2022-12-13T13:04:10;8.70;25.50
27747;DHT22;15138;51.012;4.692;2022-12-13T13:06:50;8.50;29.50
27747;DHT22;15138;51.012;4.692;2022-12-13T13:09:27;8.50;99.90
27747;DHT22;15138;51.012;4.692;2022-12-13T13:11:56;8.30;99.90
27747;DHT22;15138;51.012;4.692;2022-12-13T13:14:26;8.00;48.30
27747;DHT22;15138;51.012;4.692;2022-12-13T13:16:54;8.00;1.00
27747;DHT22;15138;51.012;4.692;2022-12-13T13:22:13;7.70;69.30
27747;DHT22;15138;51.012;4.692;2022-12-13T13:24:58;7.60;99.90
27747;DHT22;15138;51.012;4.692;2022-12-13T13:30:03;7.10;57.70
27747;DHT22;15138;51.012;4.692;2022-12-13T13:32:31;7.20;1.00
27747;DHT22;15138;51.012;4.692;2022-12-13T13:37:48;7.00;99.90
27747;DHT22;15138;51.012;4.692;2022-12-13T13:40:26;6.80;99.90
27747;DHT22;15138;51.012;4.692;2022-12-13T13:43:11;6.70;99.90
27747;DHT22;15138;51.012;4.692;2022-12-13T13:45:52;6.60;99.90
27747;DHT22;15138;51.012;4.692;2022-12-13T13:48:27;6.50;99.90
27747;DHT22;15138;51.012;4.692;2022-12-13T13:59:40;5.90;99.90
27747;DHT22;15138;51.012;4.692;2022-12-13T14:08:01;5.50;99.90
27747;DHT22;15138;51.012;4.692;2022-12-13T14:10:46;5.50;99.90
27747;DHT22;15138;51.012;4.692;2022-12-13T14:13:26;5.10;99.90
27747;DHT22;15138;51.012;4.692;2022-12-13T14:19:08;4.90;99.90
27747;DHT22;15138;51.012;4.692;2022-12-13T14:21:48;4.80;99.90
27747;DHT22;15138;51.012;4.692;2022-12-13T14:24:26;4.80;99.90
27747;DHT22;15138;51.012;4.692;2022-12-13T14:26:58;4.60;99.90
27747;DHT22;15138;51.012;4.692;2022-12-13T14:29:29;4.60;99.90
27747;DHT22;15138;51.012;4.692;2022-12-13T14:31:58;4.60;99.90
27747;DHT22;15138;51.012;4.692;2022-12-13T14:34:28;4.60;1.00
27747;DHT22;15138;51.012;4.692;2022-12-13T14:36:57;4.60;99.90
27747;DHT22;15138;51.012;4.692;2022-12-13T14:39:25;4.50;1.00
27747;DHT22;15138;51.012;4.692;2022-12-13T14:41:55;4.30;1.00
27747;DHT22;15138;51.012;4.692;2022-12-13T14:44:24;4.20;1.00
27747;DHT22;15138;51.012;4.692;2022-12-13T14:46:53;4.10;1.00
27747;DHT22;15138;51.012;4.692;2022-12-13T14:49:22;4.00;1.00
27747;DHT22;15138;51.012;4.692;2022-12-13T14:51:53;3.80;1.00
27747;DHT22;15138;51.012;4.692;2022-12-13T14:54:29;3.90;1.00
27747;DHT22;15138;51.012;4.692;2022-12-13T14:56:58;3.70;32.90
27747;DHT22;15138;51.012;4.692;2022-12-13T14:59:26;3.70;36.20
27747;DHT22;15138;51.012;4.692;2022-12-13T15:01:55;3.50;45.00
27747;DHT22;15138;51.012;4.692;2022-12-13T15:04:25;3.60;99.90
27747;DHT22;15138;51.012;4.692;2022-12-13T15:06:56;3.50;99.90
27747;DHT22;15138;51.012;4.692;2022-12-13T15:09:24;3.30;99.90
27747;DHT22;15138;51.012;4.692;2022-12-13T15:11:55;3.20;99.90
27747;DHT22;15138;51.012;4.692;2022-12-13T15:14:44;3.20;99.90
27747;DHT22;15138;51.012;4.692;2022-12-13T15:17:23;3.20;99.90
27747;DHT22;15138;51.012;4.692;2022-12-13T15:19:52;3.20;99.90
27747;DHT22;15138;51.012;4.692;2022-12-13T15:22:21;3.10;99.90
27747;DHT22;15138;51.012;4.692;2022-12-13T15:24:55;2.90;99.90
27747;DHT22;15138;51.012;4.692;2022-12-13T15:27:23;2.80;99.90
27747;DHT22;15138;51.012;4.692;2022-12-13T15:29:52;2.90;99.90
27747;DHT22;15138;51.012;4.692;2022-12-13T15:32:20;3.20;99.90
27747;DHT22;15138;51.012;4.692;2022-12-13T15:34:49;2.80;99.90
27747;DHT22;15138;51.012;4.692;2022-12-13T15:37:20;2.70;99.90
27747;DHT22;15138;51.012;4.692;2022-12-13T15:39:58;2.60;99.90
27747;DHT22;15138;51.012;4.692;2022-12-13T15:42:28;2.60;99.90
27747;DHT22;15138;51.012;4.692;2022-12-13T15:44:57;2.50;99.90
27747;DHT22;15138;51.012;4.692;2022-12-13T15:47:25;2.40;99.90
27747;DHT22;15138;51.012;4.692;2022-12-13T15:49:55;2.30;1.00
27747;DHT22;15138;51.012;4.692;2022-12-13T15:55:25;2.30;99.90
27747;DHT22;15138;51.012;4.692;2022-12-13T15:57:54;2.30;99.90
27747;DHT22;15138;51.012;4.692;2022-12-13T16:00:23;2.30;99.90
27747;DHT22;15138;51.012;4.692;2022-12-13T16:02:57;2.30;99.90
27747;DHT22;15138;51.012;4.692;2022-12-13T16:05:36;2.30;99.90
27747;DHT22;15138;51.012;4.692;2022-12-13T16:08:05;2.30;99.90
27747;DHT22;15138;51.012;4.692;2022-12-13T16:10:45;2.30;99.90
27747;DHT22;15138;51.012;4.692;2022-12-13T16:13:19;2.30;99.90
27747;DHT22;15138;51.012;4.692;2022-12-13T16:15:52;2.30;99.90
27747;DHT22;15138;51.012;4.692;2022-12-13T16:18:29;2.20;99.90
27747;DHT22;15138;51.012;4.692;2022-12-13T16:20:57;2.10;99.90
27747;DHT22;15138;51.012;4.692;2022-12-13T16:23:25;1.90;99.90
27747;DHT22;15138;51.012;4.692;2022-12-13T16:25:55;2.00;99.90
27747;DHT22;15138;51.012;4.692;2022-12-13T16:28:22;1.90;99.90
27747;DHT22;15138;51.012;4.692;2022-12-13T16:30:54;1.90;99.90
27747;DHT22;15138;51.012;4.692;2022-12-13T16:33:23;1.90;99.90
27747;DHT22;15138;51.012;4.692;2022-12-13T16:35:53;1.80;1.00
27747;DHT22;15138;51.012;4.692;2022-12-13T16:38:21;1.80;99.90
27747;DHT22;15138;51.012;4.692;2022-12-13T16:40:53;1.80;1.00
27747;DHT22;15138;51.012;4.692;2022-12-13T16:43:23;1.80;1.00
27747;DHT22;15138;51.012;4.692;2022-12-13T16:45:59;1.80;1.00
27747;DHT22;15138;51.012;4.692;2022-12-13T16:48:49;1.70;1.00